Time;durP1;ratioP1;P1;durP2;ratioP2;P2;SDS_P1;SDS_P2;PMS_P1;PMS_P2;Temp;Humidity;BMP_temperature;BMP_pressure;BME280_temperature;BME280_humidity;BME280_pressure;Samples;Min_cycle;Max_cycle;Signal;HPM_P1;HPM_P2
2022/11/30 05:03:24;;;;;;;0.38;0.20;;;19.00;99.90;;;;;;4990427;23;20281;-76
2022/11/30 05:05:51;;;;;;;0.20;0.20;;;19.00;99.90;;;;;;4974554;28;20222;-77
2022/11/30 05:08:18;;;;;;;1.27;0.20;;;19.00;99.90;;;;;;4975652;28;20227;-79
2022/11/30 05:10:45;;;;;;;0.30;0.30;;;19.00;99.90;;;;;;4975338;28;20203;-77
2022/11/30 05:13:11;;;;;;;2.85;0.38;;;19.00;99.90;;;;;;4974865;28;20229;-77
2022/11/30 05:18:06;;;;;;;1.75;0.30;;;19.10;99.90;;;;;;4934858;29;20221;-75
2022/11/30 05:20:34;;;;;;;0.30;0.15;;;19.10;99.90;;;;;;4935927;29;20560;-76
2022/11/30 05:23:01;;;;;;;2.55;0.40;;;19.20;99.90;;;;;;4936211;29;20219;-76
2022/11/30 05:25:27;;;;;;;0.20;0.20;;;19.20;99.90;;;;;;4936264;29;20211;-76
2022/11/30 05:27:54;;;;;;;0.88;0.30;;;19.30;99.90;;;;;;4954317;29;20226;-76
2022/11/30 05:30:21;;;;;;;1.98;0.30;;;19.30;99.90;;;;;;4955078;29;20589;-71
2022/11/30 05:32:48;;;;;;;1.98;0.43;;;19.30;99.90;;;;;;4955153;29;20543;-71
2022/11/30 05:35:15;;;;;;;1.27;0.30;;;19.30;99.90;;;;;;4955458;29;20207;-78
2022/11/30 05:37:43;;;;;;;10.15;0.68;;;19.30;99.90;;;;;;4955470;29;20231;-73
2022/11/30 05:40:10;;;;;;;1.08;0.60;;;19.30;99.90;;;;;;4955933;29;20686;-76
2022/11/30 05:42:37;;;;;;;2.40;0.75;;;19.30;99.90;;;;;;4955726;29;20223;-76
2022/11/30 05:45:04;;;;;;;4.38;0.82;;;19.20;99.90;;;;;;4955316;29;20214;-76
2022/11/30 05:47:31;;;;;;;2.60;0.93;;;19.10;99.90;;;;;;4956278;28;20300;-74
2022/11/30 05:49:57;;;;;;;9.32;1.20;;;19.00;99.90;;;;;;4958800;29;20199;-74
2022/11/30 05:52:24;;;;;;;12.63;1.48;;;19.00;99.90;;;;;;4959040;29;20211;-75
2022/11/30 05:54:52;;;;;;;12.65;1.85;;;18.90;99.90;;;;;;4958999;29;20215;-75
2022/11/30 05:57:19;;;;;;;23.42;2.03;;;18.90;99.90;;;;;;4958947;29;20238;-75
2022/11/30 05:59:46;;;;;;;11.55;2.50;;;19.00;99.90;;;;;;4958749;29;20671;-74
2022/11/30 06:02:12;;;;;;;23.13;2.47;;;19.00;99.90;;;;;;4959062;29;20207;-75
2022/11/30 06:04:39;;;;;;;14.90;1.90;;;18.90;99.90;;;;;;4959054;29;20223;-75
2022/11/30 06:07:10;;;;;;;13.75;2.03;;;18.90;99.90;;;;;;4959005;29;20220;-75
2022/11/30 06:09:37;;;;;;;22.52;2.13;;;18.90;99.90;;;;;;4958876;29;20198;-75
2022/11/30 11:28:07;;;;;;;17.83;1.92;;;19.10;99.90;;;;;;5596260;23;20948;-79
2022/11/30 11:30:36;;;;;;;19.55;1.92;;;19.10;99.90;;;;;;4977611;28;20249;-78
2022/11/30 11:33:05;;;;;;;15.27;2.00;;;19.10;99.90;;;;;;4977178;28;20213;-78
2022/11/30 11:35:37;;;;;;;13.60;1.75;;;19.10;99.90;;;;;;4976466;28;20573;-78
2022/11/30 11:38:05;;;;;;;20.33;2.03;;;19.10;99.90;;;;;;4976438;28;20230;-78
2022/11/30 11:40:31;;;;;;;14.88;2.10;;;19.10;99.90;;;;;;4976948;28;20230;-80
2022/11/30 11:43:02;;;;;;;10.10;2.20;;;19.10;99.90;;;;;;5001047;23;20237;-73
2022/11/30 11:45:34;;;;;;;16.95;2.20;;;19.10;99.90;;;;;;4977550;28;20191;-73
2022/11/30 11:48:03;;;;;;;16.25;3.65;;;19.10;99.90;;;;;;4979115;28;20194;-73
2022/11/30 11:50:32;;;;;;;39.95;8.00;;;19.10;99.90;;;;;;4979179;28;20578;-73
2022/11/30 11:53:21;;;;;;;27.63;5.38;;;19.10;99.90;;;;;;4979242;28;20262;-74
2022/11/30 11:55:50;;;;;;;63.10;11.15;;;19.10;99.90;;;;;;4978550;28;20191;-74
2022/11/30 11:58:23;;;;;;;101.13;20.80;;;19.10;99.90;;;;;;4975652;28;20222;-73
2022/11/30 12:00:51;;;;;;;94.57;20.42;;;19.20;99.90;;;;;;4976988;28;20206;-74
2022/11/30 12:03:25;;;;;;;125.85;26.05;;;19.20;99.90;;;;;;4977029;28;20234;-74
2022/11/30 12:05:56;;;;;;;87.78;19.92;;;19.30;99.90;;;;;;4977081;28;20191;-74
2022/11/30 12:08:33;;;;;;;98.40;19.48;;;19.30;99.90;;;;;;4976861;28;20635;-74
2022/11/30 12:11:04;;;;;;;76.15;19.30;;;19.40;99.90;;;;;;4977218;28;20206;-74
2022/11/30 12:13:37;;;;;;;82.88;19.92;;;19.30;99.90;;;;;;4978441;28;20710;-75
2022/11/30 12:16:18;;;;;;;80.07;17.63;;;19.30;99.90;;;;;;4978527;28;20590;-75
2022/11/30 12:18:54;;;;;;;89.80;19.00;;;19.40;99.90;;;;;;4979783;28;20214;-75
2022/11/30 12:21:29;;;;;;;73.47;17.98;;;19.30;99.90;;;;;;4978049;28;20187;-75
2022/11/30 12:24:10;;;;;;;86.07;18.38;;;19.30;99.90;;;;;;4976822;28;20237;-75
2022/11/30 12:26:44;;;;;;;65.15;16.98;;;19.30;99.90;;;;;;4976724;28;20187;-75
2022/11/30 12:29:21;;;;;;;82.40;16.50;;;19.20;99.90;;;;;;4977146;28;20191;-75
2022/11/30 12:32:02;;;;;;;76.68;17.08;;;19.20;99.90;;;;;;4975552;28;20208;-75
2022/11/30 12:34:42;;;;;;;67.10;16.38;;;19.20;99.90;;;;;;4977280;28;20205;-75
2022/11/30 12:37:19;;;;;;;62.60;15.80;;;19.20;99.90;;;;;;4979305;28;20186;-75
2022/11/30 12:39:57;;;;;;;66.30;15.93;;;19.20;99.90;;;;;;4975357;28;20649;-75
2022/11/30 12:42:33;;;;;;;68.70;15.77;;;19.10;99.90;;;;;;4976994;28;20241;-75
2022/11/30 12:45:08;;;;;;;62.42;15.02;;;19.10;99.90;;;;;;4979038;28;20183;-75
2022/11/30 12:47:47;;;;;;;49.83;13.93;;;19.10;99.90;;;;;;4976850;28;20646;-73
2022/11/30 12:50:36;;;;;;;60.30;14.85;;;19.00;99.90;;;;;;4976148;28;20183;-74
2022/11/30 12:53:13;;;;;;;54.03;13.85;;;19.00;99.90;;;;;;4974763;28;20233;-74
2022/11/30 12:55:47;;;;;;;57.83;15.43;;;18.90;99.90;;;;;;4974726;28;20191;-74
2022/11/30 12:58:22;;;;;;;64.70;15.63;;;18.90;99.90;;;;;;4973896;28;20209;-75
2022/11/30 13:01:04;;;;;;;55.70;14.85;;;18.90;99.90;;;;;;4975048;28;20183;-75
2022/11/30 13:03:58;;;;;;;51.85;15.13;;;18.90;99.90;;;;;;4974934;28;20223;-75
2022/11/30 13:06:31;;;;;;;50.22;13.68;;;18.90;99.90;;;;;;4966732;28;20206;-74
2022/11/30 13:09:03;;;;;;;46.80;13.38;;;18.90;99.90;;;;;;4974905;28;20186;-74
2022/11/30 13:11:34;;;;;;;44.70;13.57;;;19.00;99.90;;;;;;4974946;28;20187;-74
2022/11/30 13:14:02;;;;;;;48.10;13.57;;;19.00;99.90;;;;;;4974557;28;20713;-73
2022/11/30 13:16:34;;;;;;;51.03;14.63;;;19.10;99.90;;;;;;4974750;28;20327;-75
2022/11/30 13:19:10;;;;;;;41.78;13.05;;;19.10;99.90;;;;;;4974826;28;20211;-74
2022/11/30 13:21:44;;;;;;;45.25;12.10;;;19.20;99.90;;;;;;4974716;28;20191;-74
2022/11/30 13:24:17;;;;;;;45.63;12.23;;;19.20;99.90;;;;;;4974420;28;20562;-74
2022/11/30 13:26:49;;;;;;;46.85;12.55;;;19.20;99.90;;;;;;4974699;28;20262;-74
2022/11/30 13:29:44;;;;;;;42.92;12.73;;;19.20;99.90;;;;;;4974679;28;20213;-76
2022/11/30 13:32:14;;;;;;;38.97;12.52;;;19.20;99.90;;;;;;4974335;28;20717;-75
2022/11/30 13:34:42;;;;;;;37.30;11.68;;;19.20;99.90;;;;;;4975536;28;20188;-75
2022/11/30 13:37:12;;;;;;;49.40;12.52;;;19.20;99.90;;;;;;4975734;28;20670;-75
2022/11/30 13:39:47;;;;;;;33.58;11.25;;;19.20;99.90;;;;;;4975994;28;20233;-75
2022/11/30 13:42:36;;;;;;;43.25;11.27;;;19.20;99.90;;;;;;4976399;28;20230;-76
2022/11/30 13:45:30;;;;;;;41.30;11.32;;;19.20;99.90;;;;;;4975336;28;20183;-75
2022/11/30 13:48:00;;;;;;;48.92;11.77;;;19.20;99.90;;;;;;4975823;28;20191;-74
2022/11/30 13:50:36;;;;;;;43.35;12.60;;;19.20;99.90;;;;;;4975204;28;20203;-74
2022/11/30 13:53:19;;;;;;;38.15;10.57;;;19.20;99.90;;;;;;4975180;28;20230;-75
2022/11/30 13:55:53;;;;;;;40.58;10.88;;;19.20;99.90;;;;;;4975451;28;20198;-75
2022/11/30 13:58:21;;;;;;;38.95;11.50;;;19.20;99.90;;;;;;4975179;28;20207;-75
2022/11/30 14:01:17;;;;;;;35.30;11.13;;;19.10;99.90;;;;;;4975289;28;20259;-75
2022/11/30 14:04:29;;;;;;;26.98;9.38;;;19.20;99.90;;;;;;4962176;28;20227;-75
2022/11/30 14:06:58;;;;;;;35.42;9.80;;;19.10;99.90;;;;;;4975750;28;20635;-73
2022/11/30 14:10:07;;;;;;;29.25;10.10;;;19.10;99.90;;;;;;4977464;28;20203;-75
2022/11/30 14:12:56;;;;;;;27.02;9.60;;;19.10;99.90;;;;;;4978506;28;20223;-75
2022/11/30 14:15:54;;;;;;;31.02;9.23;;;19.10;99.90;;;;;;4979385;28;20210;-75
2022/11/30 14:18:33;;;;;;;35.13;10.27;;;19.10;99.90;;;;;;4978395;28;20227;-75
2022/11/30 14:21:12;;;;;;;33.53;10.00;;;19.10;99.90;;;;;;4978662;28;20199;-74
2022/11/30 14:23:47;;;;;;;29.63;9.48;;;19.10;99.90;;;;;;4978614;28;20625;-75
2022/11/30 14:26:15;;;;;;;36.22;10.38;;;19.10;99.90;;;;;;4978847;28;20191;-74
2022/11/30 14:28:51;;;;;;;37.78;9.60;;;19.10;99.90;;;;;;4978646;28;20218;-74
2022/11/30 14:31:23;;;;;;;32.42;9.65;;;19.10;99.90;;;;;;4978658;28;20187;-76
2022/11/30 14:33:53;;;;;;;34.45;9.85;;;19.10;99.90;;;;;;4979576;28;20230;-75
2022/11/30 14:36:25;;;;;;;24.58;8.65;;;19.10;99.90;;;;;;4979885;28;20223;-74
2022/11/30 14:38:52;;;;;;;28.95;9.23;;;19.10;99.90;;;;;;4978404;28;20682;-76
2022/11/30 14:41:21;;;;;;;28.70;9.27;;;19.10;99.90;;;;;;4978827;28;20687;-75
2022/11/30 14:44:06;;;;;;;26.17;8.98;;;19.20;99.90;;;;;;4978080;28;20234;-75
2022/11/30 14:46:34;;;;;;;21.92;8.27;;;19.20;99.90;;;;;;4978941;28;20191;-75
2022/11/30 14:49:15;;;;;;;25.17;8.48;;;19.30;99.90;;;;;;4978618;28;20199;-74
2022/11/30 14:51:46;;;;;;;29.17;9.10;;;19.30;99.90;;;;;;4978222;28;20222;-74
2022/11/30 14:54:35;;;;;;;30.67;8.50;;;19.30;99.90;;;;;;4978680;28;20183;-76
2022/11/30 14:57:11;;;;;;;17.80;7.97;;;19.30;99.90;;;;;;4978780;28;20183;-75
2022/11/30 14:59:45;;;;;;;26.38;8.05;;;19.30;99.90;;;;;;4977969;28;20232;-75
2022/11/30 15:02:20;;;;;;;34.55;7.93;;;19.30;99.90;;;;;;4977686;28;20223;-76
2022/11/30 15:04:47;;;;;;;28.05;8.25;;;19.30;99.90;;;;;;4978502;28;20203;-76
2022/11/30 15:07:25;;;;;;;26.20;7.10;;;19.20;99.90;;;;;;4982872;28;20199;-76
2022/11/30 15:10:00;;;;;;;26.25;7.93;;;18.80;99.90;;;;;;4981707;28;20195;-76
2022/11/30 15:12:27;;;;;;;24.48;7.70;;;19.10;99.90;;;;;;4980571;28;20317;-76
2022/11/30 15:15:18;;;;;;;23.42;7.75;;;19.10;99.90;;;;;;4979257;28;20306;-75
2022/11/30 15:17:56;;;;;;;23.23;7.28;;;19.10;99.90;;;;;;4958136;28;20214;-75
2022/11/30 15:20:29;;;;;;;17.50;7.05;;;19.00;99.90;;;;;;4975318;28;20690;-75
2022/11/30 15:23:00;;;;;;;21.65;7.30;;;19.00;99.90;;;;;;4976229;28;20686;-76
2022/11/30 15:25:34;;;;;;;20.52;7.05;;;19.00;99.90;;;;;;4976513;28;20214;-75
2022/11/30 15:28:03;;;;;;;23.63;7.43;;;18.90;99.90;;;;;;4976535;28;20187;-75
2022/11/30 15:30:30;;;;;;;20.00;6.38;;;18.90;99.90;;;;;;4976173;28;20576;-75
2022/11/30 15:32:57;;;;;;;21.23;5.95;;;18.90;99.90;;;;;;4976339;28;20227;-73
2022/11/30 15:35:26;;;;;;;15.65;6.40;;;18.90;99.90;;;;;;4976349;28;20206;-75
2022/11/30 15:37:54;;;;;;;15.10;6.00;;;18.90;99.90;;;;;;4976356;28;20293;-75
2022/11/30 15:40:32;;;;;;;18.30;6.40;;;18.90;99.90;;;;;;4975969;28;20817;-74
2022/11/30 15:43:00;;;;;;;17.90;5.68;;;18.90;99.90;;;;;;4975843;28;20234;-74
2022/11/30 15:45:29;;;;;;;15.63;5.95;;;19.00;99.90;;;;;;4976132;28;20218;-74
2022/11/30 15:47:57;;;;;;;17.40;6.40;;;19.10;99.90;;;;;;4976151;28;20218;-73
2022/11/30 15:50:35;;;;;;;15.73;6.28;;;19.20;99.90;;;;;;4975818;28;20195;-74
2022/11/30 15:53:19;;;;;;;17.30;5.82;;;19.20;99.90;;;;;;4975676;28;20592;-74
2022/11/30 15:55:49;;;;;;;12.20;5.50;;;19.30;99.90;;;;;;4975718;28;20670;-74
2022/11/30 15:58:29;;;;;;;19.55;5.55;;;19.30;99.90;;;;;;4975942;28;20266;-74
2022/11/30 16:01:05;;;;;;;20.23;6.00;;;19.30;99.90;;;;;;4976488;28;20191;-73
2022/11/30 16:03:33;;;;;;;11.63;6.40;;;19.30;99.90;;;;;;4975796;28;20233;-73
2022/11/30 16:06:03;;;;;;;15.70;6.05;;;19.30;99.90;;;;;;4975797;28;20207;-75
2022/11/30 16:08:30;;;;;;;14.57;5.90;;;19.20;99.90;;;;;;4975806;28;20241;-74
2022/11/30 16:10:59;;;;;;;13.93;4.88;;;19.20;99.90;;;;;;4975773;28;20183;-74
2022/11/30 16:13:29;;;;;;;15.70;5.95;;;19.20;99.90;;;;;;4975619;28;20227;-74
2022/11/30 16:15:58;;;;;;;16.63;5.75;;;19.10;99.90;;;;;;4975651;28;20190;-74
2022/11/30 16:18:26;;;;;;;12.25;5.25;;;19.10;99.90;;;;;;4975634;28;20226;-74
2022/11/30 16:20:56;;;;;;;12.82;5.45;;;19.10;99.90;;;;;;4975145;28;20582;-74
2022/11/30 16:23:23;;;;;;;15.57;5.60;;;19.10;99.90;;;;;;4975155;28;20686;-74
2022/11/30 16:25:50;;;;;;;13.48;6.30;;;19.00;99.90;;;;;;4975437;28;20206;-74
2022/11/30 16:28:20;;;;;;;14.80;5.97;;;19.00;99.90;;;;;;4975094;28;20222;-74
2022/11/30 16:30:47;;;;;;;15.60;5.53;;;19.00;99.90;;;;;;4975067;28;20707;-74
2022/11/30 16:33:15;;;;;;;9.95;5.20;;;18.90;99.90;;;;;;4974919;28;20218;-76
2022/11/30 16:35:47;;;;;;;13.50;5.72;;;18.90;99.90;;;;;;4975306;28;20209;-75
2022/11/30 16:38:13;;;;;;;13.23;5.00;;;18.90;99.90;;;;;;4975321;28;20192;-75
2022/11/30 16:40:40;;;;;;;10.95;5.22;;;18.90;99.90;;;;;;4975106;28;20230;-75
2022/11/30 16:43:09;;;;;;;12.82;5.53;;;18.90;99.90;;;;;;4974679;28;20721;-75
2022/11/30 16:45:39;;;;;;;14.85;5.18;;;18.90;99.90;;;;;;4974866;28;20717;-76
2022/11/30 16:48:07;;;;;;;9.30;4.32;;;18.90;99.90;;;;;;4975129;28;20202;-74
2022/11/30 16:50:34;;;;;;;7.65;4.45;;;19.00;99.90;;;;;;4975103;28;20194;-73
2022/11/30 16:53:01;;;;;;;10.20;4.30;;;19.00;99.90;;;;;;4974915;28;20226;-74
2022/11/30 16:55:30;;;;;;;10.38;5.32;;;19.10;99.90;;;;;;4975052;28;20211;-75
2022/11/30 16:57:57;;;;;;;15.55;4.95;;;19.20;99.90;;;;;;4974990;28;20233;-74
2022/11/30 17:10:59;;;;;;;28.20;4.80;;;19.20;99.90;;;;;;5719153;23;20222;-72
2022/11/30 17:13:26;;;;;;;20.90;4.45;;;19.20;99.90;;;;;;4974782;28;20222;-72
2022/11/30 17:15:53;;;;;;;31.42;5.07;;;19.20;99.90;;;;;;4978352;28;20666;-73
2022/11/30 17:18:20;;;;;;;20.08;5.13;;;19.20;99.90;;;;;;4980458;28;20211;-73
2022/11/30 17:20:49;;;;;;;35.55;5.07;;;19.30;99.90;;;;;;4979284;28;20226;-73
2022/11/30 17:23:16;;;;;;;29.38;4.55;;;19.20;99.90;;;;;;4979932;28;20274;-75
2022/11/30 17:25:42;;;;;;;29.73;4.90;;;19.20;99.90;;;;;;4976075;28;20199;-75
2022/11/30 17:28:10;;;;;;;30.45;5.32;;;19.20;99.90;;;;;;4975717;28;20593;-74
2022/11/30 17:30:37;;;;;;;37.83;5.78;;;19.20;99.90;;;;;;4975801;28;20698;-77
2022/11/30 17:33:04;;;;;;;26.92;4.95;;;19.20;99.90;;;;;;4976220;28;20205;-76
2022/11/30 17:35:31;;;;;;;21.42;4.50;;;19.20;99.90;;;;;;4976926;28;20293;-77
2022/11/30 17:37:57;;;;;;;26.90;5.53;;;19.20;99.90;;;;;;4976270;28;20671;-77
2022/11/30 17:40:24;;;;;;;19.42;4.78;;;19.20;99.90;;;;;;4976597;28;20227;-77
2022/11/30 17:42:51;;;;;;;17.92;4.43;;;19.20;99.90;;;;;;4976470;28;20213;-76
2022/11/30 17:45:19;;;;;;;12.20;4.68;;;19.20;99.90;;;;;;4980628;28;20210;-76
2022/11/30 17:47:46;;;;;;;17.45;4.90;;;19.20;99.90;;;;;;4980921;28;20203;-76
2022/11/30 17:50:13;;;;;;;31.77;4.65;;;19.20;99.90;;;;;;4980036;28;20688;-76
2022/11/30 17:52:40;;;;;;;21.67;4.43;;;19.20;99.90;;;;;;4980983;28;20302;-77
2022/11/30 17:55:08;;;;;;;25.05;5.03;;;19.20;99.90;;;;;;4979724;28;20590;-77
2022/11/30 17:57:36;;;;;;;29.17;4.40;;;19.30;99.90;;;;;;4980496;28;20207;-76
2022/11/30 18:00:05;;;;;;;14.50;4.85;;;19.20;99.90;;;;;;4980705;28;20218;-76
2022/11/30 18:02:33;;;;;;;21.55;4.20;;;19.30;99.90;;;;;;4980264;28;20206;-77
2022/11/30 18:04:59;;;;;;;18.15;4.25;;;19.30;99.90;;;;;;4979573;28;20203;-77
2022/11/30 18:07:26;;;;;;;11.82;3.70;;;19.30;99.90;;;;;;4981103;28;20210;-77
2022/11/30 18:09:53;;;;;;;12.52;4.25;;;19.30;99.90;;;;;;4980802;28;20674;-77
2022/11/30 18:12:20;;;;;;;19.08;4.30;;;19.30;99.90;;;;;;4981224;28;20229;-76
2022/11/30 18:14:46;;;;;;;16.52;4.57;;;19.20;99.90;;;;;;4980753;28;20246;-76
2022/11/30 18:17:13;;;;;;;15.27;4.00;;;19.20;99.90;;;;;;4982119;28;20203;-76
2022/11/30 18:19:41;;;;;;;15.13;4.32;;;19.20;99.90;;;;;;4979203;28;20219;-77
2022/11/30 18:22:08;;;;;;;12.95;4.60;;;19.20;99.90;;;;;;4979183;28;20227;-77
2022/11/30 18:24:34;;;;;;;19.27;4.35;;;19.20;99.90;;;;;;4979350;28;20199;-77
2022/11/30 18:27:01;;;;;;;13.75;4.30;;;19.20;99.90;;;;;;4979562;28;20207;-77
2022/11/30 18:29:28;;;;;;;21.05;4.53;;;19.20;99.90;;;;;;4979701;28;20685;-77
2022/11/30 18:31:55;;;;;;;6.78;3.70;;;19.20;99.90;;;;;;4979641;28;20242;-77
2022/11/30 18:34:22;;;;;;;17.23;4.53;;;19.30;99.90;;;;;;4979111;28;20203;-77
2022/11/30 18:36:50;;;;;;;24.02;3.95;;;19.30;99.90;;;;;;4979003;28;20257;-77
2022/11/30 18:39:17;;;;;;;9.48;4.45;;;19.30;99.90;;;;;;4978539;28;20199;-77
2022/11/30 18:41:43;;;;;;;8.77;3.60;;;19.30;99.90;;;;;;4979055;28;20225;-77
2022/11/30 18:44:10;;;;;;;11.10;4.03;;;19.30;99.90;;;;;;4979235;28;20198;-77
2022/11/30 18:46:37;;;;;;;10.00;3.28;;;19.30;99.90;;;;;;4978926;28;20199;-77
2022/11/30 18:49:05;;;;;;;10.70;3.25;;;19.30;99.90;;;;;;4979477;28;20605;-77
2022/11/30 18:51:31;;;;;;;12.90;3.25;;;19.30;99.90;;;;;;4978891;28;20401;-77
2022/11/30 18:54:03;;;;;;;19.48;3.85;;;19.30;99.90;;;;;;4978688;28;20697;-77
2022/11/30 18:56:31;;;;;;;34.50;5.00;;;19.30;99.90;;;;;;4978003;28;20191;-74
2022/11/30 18:59:00;;;;;;;16.83;3.83;;;19.30;99.90;;;;;;4977548;28;20203;-75
2022/11/30 19:01:28;;;;;;;14.45;3.90;;;19.30;99.90;;;;;;4977089;28;20231;-76
2022/11/30 19:03:57;;;;;;;22.02;4.70;;;19.40;99.90;;;;;;4977138;28;20210;-76
2022/11/30 19:06:27;;;;;;;20.15;4.20;;;19.40;99.90;;;;;;4977081;28;20199;-75
2022/11/30 19:08:53;;;;;;;16.27;3.60;;;19.50;99.90;;;;;;4976931;28;20214;-75
2022/11/30 19:11:22;;;;;;;15.50;4.10;;;19.50;99.90;;;;;;4976561;28;20559;-75
2022/11/30 19:13:53;;;;;;;16.92;3.78;;;19.50;99.90;;;;;;4976466;28;20293;-75
2022/11/30 19:16:20;;;;;;;18.98;4.55;;;19.50;99.90;;;;;;4976956;28;20191;-76
2022/11/30 19:18:47;;;;;;;20.48;3.85;;;19.50;99.90;;;;;;4976882;28;20213;-75
2022/11/30 19:21:15;;;;;;;23.30;4.07;;;19.50;99.90;;;;;;4976318;28;20234;-75
2022/11/30 19:23:42;;;;;;;18.45;4.00;;;19.50;99.90;;;;;;4976735;28;20207;-75
2022/11/30 19:26:10;;;;;;;21.58;4.97;;;19.50;99.90;;;;;;4976641;28;20199;-73
2022/11/30 19:28:39;;;;;;;29.17;5.03;;;19.50;99.90;;;;;;4976236;28;20684;-73
2022/11/30 19:31:07;;;;;;;12.82;4.43;;;19.50;99.90;;;;;;4976201;28;20218;-73
2022/11/30 19:33:35;;;;;;;17.98;4.38;;;19.50;99.90;;;;;;4976370;28;20206;-75
2022/11/30 19:36:03;;;;;;;19.33;4.28;;;19.50;99.90;;;;;;4976334;28;20203;-75
2022/11/30 19:38:29;;;;;;;28.30;4.93;;;19.50;99.90;;;;;;4976363;28;20206;-75
2022/11/30 19:40:56;;;;;;;22.73;4.43;;;19.40;99.90;;;;;;4976146;28;20227;-74
2022/11/30 19:43:23;;;;;;;20.98;4.78;;;19.40;99.90;;;;;;4975938;28;20685;-75
2022/11/30 19:45:51;;;;;;;19.40;4.90;;;19.40;99.90;;;;;;4976266;28;20207;-75
2022/11/30 19:48:18;;;;;;;22.75;5.03;;;19.40;99.90;;;;;;4976146;28;20210;-74
2022/11/30 19:50:44;;;;;;;21.73;5.00;;;19.40;99.90;;;;;;4976036;28;20222;-75
2022/11/30 19:53:11;;;;;;;26.45;5.43;;;19.40;99.90;;;;;;4976155;28;20206;-75
2022/11/30 19:55:38;;;;;;;35.67;5.97;;;19.40;99.90;;;;;;4976070;28;20222;-74
2022/11/30 19:58:06;;;;;;;38.50;5.57;;;19.50;99.90;;;;;;4976018;28;20198;-73
2022/11/30 20:00:33;;;;;;;32.47;5.22;;;19.50;99.90;;;;;;4975805;28;20231;-73
2022/11/30 20:03:08;;;;;;;29.85;6.03;;;19.60;99.90;;;;;;4975589;28;20214;-74
2022/11/30 20:05:35;;;;;;;20.98;4.35;;;19.70;99.90;;;;;;4975810;28;20189;-72
2022/11/30 20:08:01;;;;;;;21.98;4.60;;;19.70;99.90;;;;;;4975437;28;20210;-73
2022/11/30 20:10:28;;;;;;;27.80;4.88;;;19.70;99.90;;;;;;4975614;28;20215;-73
2022/11/30 20:12:55;;;;;;;17.08;4.05;;;19.70;99.90;;;;;;4975494;28;20222;-73
2022/11/30 20:15:22;;;;;;;20.38;4.22;;;19.70;99.90;;;;;;4975360;28;20191;-73
2022/11/30 20:17:48;;;;;;;18.45;4.30;;;19.70;99.90;;;;;;4975472;28;20198;-73
2022/11/30 20:20:16;;;;;;;11.55;3.33;;;19.70;99.90;;;;;;4975002;28;20594;-73
2022/11/30 20:22:43;;;;;;;10.82;3.30;;;19.70;99.90;;;;;;4975412;28;20258;-73
2022/11/30 20:25:10;;;;;;;12.90;3.95;;;19.70;99.90;;;;;;4975083;28;20566;-73
2022/11/30 20:27:36;;;;;;;20.60;3.20;;;19.60;99.90;;;;;;4975352;28;20207;-73
2022/11/30 20:30:04;;;;;;;13.38;2.88;;;19.60;99.90;;;;;;4976084;28;20211;-73
2022/11/30 20:32:30;;;;;;;10.93;3.30;;;19.50;99.90;;;;;;4975090;28;20697;-73
2022/11/30 20:34:57;;;;;;;7.68;2.45;;;19.50;99.90;;;;;;4975343;28;20199;-73
2022/11/30 20:37:25;;;;;;;8.25;2.28;;;19.50;99.90;;;;;;4975449;28;20202;-73
2022/11/30 20:39:52;;;;;;;8.65;2.80;;;19.50;99.90;;;;;;4975172;28;20203;-73
2022/11/30 20:42:19;;;;;;;7.95;1.85;;;19.50;99.90;;;;;;4975126;28;20219;-73
2022/11/30 20:44:46;;;;;;;9.23;2.67;;;19.40;99.90;;;;;;4975153;28;20203;-73
2022/11/30 20:47:12;;;;;;;10.32;2.53;;;19.40;99.90;;;;;;4975172;28;20203;-73
2022/11/30 20:49:39;;;;;;;6.85;2.38;;;19.40;99.90;;;;;;4975122;28;20211;-73
2022/11/30 20:52:06;;;;;;;5.82;2.20;;;19.40;99.90;;;;;;4974970;28;20218;-74
2022/11/30 20:54:34;;;;;;;7.03;2.38;;;19.30;99.90;;;;;;4975086;28;20209;-74
2022/11/30 20:57:01;;;;;;;7.63;2.60;;;19.30;99.90;;;;;;4974940;28;20203;-74
2022/11/30 20:59:27;;;;;;;9.18;2.53;;;19.30;99.90;;;;;;4974987;28;20206;-74
2022/11/30 21:01:56;;;;;;;9.55;2.63;;;19.30;99.90;;;;;;4974477;28;20234;-73
2022/11/30 21:04:24;;;;;;;8.00;2.50;;;19.30;99.90;;;;;;4974648;28;20674;-75
2022/11/30 21:06:51;;;;;;;5.50;3.08;;;19.30;99.90;;;;;;4974965;28;20262;-76
2022/11/30 21:09:19;;;;;;;9.68;2.78;;;19.30;99.90;;;;;;4974880;28;20229;-75
2022/11/30 21:11:48;;;;;;;6.35;2.05;;;19.40;99.90;;;;;;4974781;28;20219;-75
2022/11/30 21:14:16;;;;;;;8.63;2.55;;;19.40;99.90;;;;;;4974407;28;20215;-75
2022/11/30 21:16:43;;;;;;;9.45;2.53;;;19.50;99.90;;;;;;4974798;28;20206;-75
2022/11/30 21:19:10;;;;;;;6.20;2.58;;;19.50;99.90;;;;;;4973967;28;20203;-75
2022/11/30 21:21:37;;;;;;;3.80;2.35;;;19.50;99.90;;;;;;4974620;28;20223;-75
2022/11/30 21:24:07;;;;;;;8.10;2.58;;;19.50;99.90;;;;;;4974721;28;20210;-75
2022/11/30 21:26:36;;;;;;;8.52;2.38;;;19.50;99.90;;;;;;4974742;28;20207;-75
2022/11/30 21:29:06;;;;;;;8.18;2.30;;;19.50;99.90;;;;;;4974710;28;20202;-75
2022/11/30 21:31:33;;;;;;;4.55;2.10;;;19.50;99.90;;;;;;4974611;28;20223;-75
2022/11/30 21:34:00;;;;;;;4.78;2.28;;;19.50;99.90;;;;;;4974647;28;20206;-75
2022/11/30 21:36:27;;;;;;;7.70;2.22;;;19.50;99.90;;;;;;4974596;28;20226;-75
2022/11/30 21:38:55;;;;;;;6.50;1.85;;;19.50;99.90;;;;;;4974591;28;20207;-75
